Gull Lake, Canada
Current Conditions -  °F | °C
As of 2:00 AM on Saturday 25 Oct 2014 (Local Time) from CYYN Reporting Station
Clear Clear  
Wind Chill: 27°   Ceiling: Unl
Heat Index: 34°   Visibility: 9mi
Dew Point: 27°   Wind: 8mph
Humidity: 75%   Direction: 230°SW
Pressure: 30.05"   Gusts: NA
Location:  50.1°N, 108.48°W
Report Text: CYYN 250800Z AUTO 23007KT 9SM CLR 01/M03 A3005 RMK SLP196
Loading
Personal Weather Stations






























Interactive Weather Map
Tropical Storm Tracking
New forecast layout! Learn more

10-Day Weather Forecast

Advertisements
Track Severe Weather on mobile